Terminal Aerodrome Forecast
Issued by NWS

Home | Current Version | Previous Version | Text Only | Print | Product List | Glossary On
Versions: 1 2 3 4 5 6 7 8 9 10 11 12 13
644
FTUS45 KABQ 281720
TAFFMN
TAF
KFMN 281720Z 2818/2918 31007KT P6SM SCT100
     FM282100 27008KT P6SM VCSH BKN080
      TEMPO 2823/2903 VRB15G30KT 5SM -TSRA OVC030CB
     FM290300 10010KT P6SM VCSH BKN050=

USA.gov is the U.S. government's official web portal to all federal, state and local government web resources and services.